Time;durP1;ratioP1;P1;durP2;ratioP2;P2;SDS_P1;SDS_P2;PMS_P1;PMS_P2;Temp;Humidity;BMP_temperature;BMP_pressure;BME280_temperature;BME280_humidity;BME280_pressure;Samples;Min_cycle;Max_cycle;Signal;HPM_P1;HPM_P2
2021/07/16 00:02:06;;;;;;;1999.90;999.90;;;20.30;99.90;;;;;;5106837;28;20170;-83
2021/07/16 00:04:31;;;;;;;1999.90;999.90;;;20.30;99.90;;;;;;5089462;28;20240;-83
2021/07/16 00:06:58;;;;;;;1999.90;999.90;;;20.20;99.90;;;;;;5107626;28;20456;-83
2021/07/16 00:09:24;;;;;;;1999.90;999.90;;;20.20;99.90;;;;;;5107542;28;20546;-82
2021/07/16 00:11:49;;;;;;;1999.90;999.90;;;20.20;99.90;;;;;;5108435;28;20404;-82
2021/07/16 00:14:15;;;;;;;1999.90;999.90;;;20.20;99.90;;;;;;5108268;28;20191;-82
2021/07/16 00:16:41;;;;;;;1999.90;999.90;;;20.20;99.90;;;;;;5108123;28;20184;-83
2021/07/16 00:19:07;;;;;;;1999.90;999.90;;;20.10;99.90;;;;;;5107756;28;20403;-82
2021/07/16 00:21:33;;;;;;;1999.90;999.90;;;20.10;99.90;;;;;;5106990;28;20631;-82
2021/07/16 00:23:59;;;;;;;1999.90;999.90;;;20.10;99.90;;;;;;5107293;28;20415;-82
2021/07/16 00:26:25;;;;;;;1999.90;999.90;;;20.10;99.90;;;;;;5090210;28;20457;-83
2021/07/16 00:28:50;;;;;;;1999.90;999.90;;;20.00;99.90;;;;;;5106000;28;20212;-83
2021/07/16 00:31:16;;;;;;;1999.90;999.90;;;20.00;99.90;;;;;;5108126;28;20401;-83
2021/07/16 00:33:42;;;;;;;1999.90;999.90;;;20.00;99.90;;;;;;5107942;28;20165;-83
2021/07/16 00:36:08;;;;;;;1999.90;999.90;;;20.00;99.90;;;;;;5107411;28;20183;-83
2021/07/16 00:38:33;;;;;;;1999.90;999.90;;;20.00;99.90;;;;;;5106480;28;20202;-83
2021/07/16 00:40:59;;;;;;;1999.90;999.90;;;20.00;99.90;;;;;;5107238;28;20217;-82
2021/07/16 00:43:25;;;;;;;1999.90;999.90;;;20.10;99.90;;;;;;5106391;28;20229;-83
2021/07/16 00:45:51;;;;;;;1999.90;999.90;;;20.00;99.90;;;;;;5107859;28;20186;-82
2021/07/16 00:48:18;;;;;;;1999.90;999.90;;;20.00;99.90;;;;;;5107142;28;20183;-82
2021/07/16 00:50:43;;;;;;;1999.90;999.90;;;20.00;99.90;;;;;;5107877;28;20405;-83
2021/07/16 00:53:14;;;;;;;1999.90;999.90;;;20.00;99.90;;;;;;5106555;28;20493;-82
2021/07/16 00:55:40;;;;;;;1999.90;999.90;;;20.00;99.90;;;;;;5107209;28;20175;-82
2021/07/16 00:58:06;;;;;;;1999.90;999.90;;;20.00;99.90;;;;;;5106923;28;20404;-82
2021/07/16 01:00:32;;;;;;;1999.90;999.90;;;20.00;99.90;;;;;;5106513;28;20397;-82
2021/07/16 01:02:57;;;;;;;1999.90;999.90;;;20.00;99.90;;;;;;5088912;28;20577;-83
2021/07/16 01:05:24;;;;;;;1999.90;999.90;;;20.00;99.90;;;;;;5106759;28;20234;-82
2021/07/16 01:07:51;;;;;;;1999.90;999.90;;;20.00;99.90;;;;;;5106231;28;20255;-81
2021/07/16 01:10:17;;;;;;;1999.90;999.90;;;19.90;99.90;;;;;;5094342;28;20398;-81
2021/07/16 01:12:44;;;;;;;1999.90;999.90;;;19.90;99.90;;;;;;5093900;28;20760;-81
2021/07/16 01:15:16;;;;;;;1999.90;999.90;;;19.90;99.90;;;;;;5093914;28;20864;-81
2021/07/16 01:17:42;;;;;;;1999.90;999.90;;;19.80;99.90;;;;;;5093523;28;20449;-81
2021/07/16 01:20:10;;;;;;;1999.90;999.90;;;19.90;99.90;;;;;;5093844;28;20405;-81
2021/07/16 01:22:38;;;;;;;1999.90;999.90;;;19.80;99.90;;;;;;5093717;28;20487;-80
2021/07/16 01:25:06;;;;;;;1999.90;999.90;;;19.80;99.90;;;;;;5093592;28;20410;-80
2021/07/16 01:27:33;;;;;;;1999.90;999.90;;;19.70;99.90;;;;;;5093620;28;20493;-81
2021/07/16 01:29:59;;;;;;;1999.90;999.90;;;19.80;99.90;;;;;;5075273;28;20573;-81
2021/07/16 01:32:27;;;;;;;1999.90;999.90;;;19.80;99.90;;;;;;5093590;28;20437;-81
2021/07/16 01:34:52;;;;;;;1999.90;999.90;;;19.80;99.90;;;;;;5093445;28;20802;-80
2021/07/16 01:37:20;;;;;;;1999.90;999.90;;;19.80;99.90;;;;;;5093501;28;20502;-81
2021/07/16 01:39:46;;;;;;;1999.90;999.90;;;19.80;99.90;;;;;;5096386;28;20181;-81
2021/07/16 01:42:12;;;;;;;1999.90;999.90;;;19.80;99.90;;;;;;5097308;28;20822;-81
2021/07/16 01:44:41;;;;;;;1999.90;999.90;;;19.80;99.90;;;;;;5097352;28;20433;-81
2021/07/16 01:47:09;;;;;;;1999.90;999.90;;;19.80;99.90;;;;;;5096719;28;20433;-80
2021/07/16 01:49:34;;;;;;;1999.90;999.90;;;19.80;99.90;;;;;;5097324;28;21002;-81
2021/07/16 01:52:01;;;;;;;1999.90;999.90;;;19.70;99.90;;;;;;5095696;28;20453;-81
2021/07/16 01:54:29;;;;;;;1999.90;999.90;;;19.70;99.90;;;;;;5095661;28;20417;-81
2021/07/16 01:56:55;;;;;;;1999.90;999.90;;;19.70;99.90;;;;;;5096827;28;20454;-81
2021/07/16 01:59:24;;;;;;;1999.90;999.90;;;19.70;99.90;;;;;;5096800;28;20918;-81
2021/07/16 02:01:49;;;;;;;1999.90;999.90;;;19.70;99.90;;;;;;5097217;28;20465;-81
2021/07/16 02:04:15;;;;;;;1999.90;999.90;;;19.60;99.90;;;;;;5096970;28;20443;-81
2021/07/16 02:06:41;;;;;;;1999.90;999.90;;;19.60;99.90;;;;;;5096529;28;20210;-81
2021/07/16 02:09:08;;;;;;;1999.90;999.90;;;19.60;99.90;;;;;;5095504;28;20206;-81
2021/07/16 02:11:34;;;;;;;1999.90;999.90;;;19.60;99.90;;;;;;5096462;28;20164;-82
2021/07/16 02:14:00;;;;;;;1999.90;999.90;;;19.60;99.90;;;;;;5079356;28;20406;-82
2021/07/16 02:16:27;;;;;;;1999.90;999.90;;;19.60;99.90;;;;;;5107212;28;20431;-82
2021/07/16 02:18:54;;;;;;;1999.90;999.90;;;19.60;99.90;;;;;;5109767;28;20907;-82
2021/07/16 02:21:23;;;;;;;1999.90;999.90;;;19.60;99.90;;;;;;5092746;28;20409;-83
2021/07/16 02:23:49;;;;;;;1999.90;999.90;;;19.60;99.90;;;;;;5109708;28;20426;-83
2021/07/16 02:26:16;;;;;;;1999.90;999.90;;;19.60;99.90;;;;;;5109873;28;20422;-83
2021/07/16 02:28:42;;;;;;;1999.90;999.90;;;19.60;99.90;;;;;;5108898;28;20449;-83
2021/07/16 02:31:10;;;;;;;1999.90;999.90;;;19.50;99.90;;;;;;5109640;28;20395;-83
2021/07/16 02:33:36;;;;;;;1999.90;999.90;;;19.60;99.90;;;;;;5110277;28;20463;-83
2021/07/16 02:36:03;;;;;;;1999.90;999.90;;;19.50;99.90;;;;;;5109667;28;20422;-82
2021/07/16 02:38:29;;;;;;;1999.90;999.90;;;19.50;99.90;;;;;;5092076;28;20178;-83
2021/07/16 02:40:55;;;;;;;1999.90;999.90;;;19.50;99.90;;;;;;5110099;28;20421;-83
2021/07/16 02:43:22;;;;;;;1999.90;999.90;;;19.50;99.90;;;;;;5109820;28;20171;-83
2021/07/16 02:45:51;;;;;;;1999.90;999.90;;;19.50;99.90;;;;;;5091745;28;20827;-82
2021/07/16 02:48:17;;;;;;;1999.90;999.90;;;19.40;99.90;;;;;;5110065;28;20449;-82
2021/07/16 02:50:45;;;;;;;1999.90;999.90;;;19.30;99.90;;;;;;5109433;28;20408;-83
2021/07/16 02:53:12;;;;;;;1999.90;999.90;;;19.40;99.90;;;;;;5109618;28;20171;-83
2021/07/16 02:55:38;;;;;;;1999.90;999.90;;;19.30;99.90;;;;;;5109468;28;20487;-83
2021/07/16 02:58:05;;;;;;;1999.90;999.90;;;19.40;99.90;;;;;;5110537;28;20402;-83
2021/07/16 03:00:32;;;;;;;1999.90;999.90;;;19.30;99.90;;;;;;5109352;28;20406;-83
2021/07/16 03:02:58;;;;;;;1999.90;999.90;;;19.40;99.90;;;;;;5092136;28;20417;-83
2021/07/16 03:05:27;;;;;;;1999.90;999.90;;;19.30;99.90;;;;;;5173946;22;20488;-82
2021/07/16 03:07:54;;;;;;;1999.90;999.90;;;19.30;99.90;;;;;;5079813;28;20409;-82
2021/07/16 03:10:41;;;;;;;1999.90;999.90;;;19.40;99.90;;;;;;5098182;28;20415;-81
2021/07/16 03:13:12;;;;;;;1999.90;999.90;;;19.30;99.90;;;;;;5098589;28;20386;-82
2021/07/16 03:15:39;;;;;;;1999.90;999.90;;;19.30;99.90;;;;;;5098385;28;20424;-82
2021/07/16 03:18:05;;;;;;;1999.90;999.90;;;19.30;99.90;;;;;;5098790;28;20397;-82
2021/07/16 03:20:35;;;;;;;1999.90;999.90;;;19.40;99.90;;;;;;5098068;28;20402;-81
2021/07/16 03:23:01;;;;;;;1999.90;999.90;;;19.30;99.90;;;;;;5079862;28;20420;-82
2021/07/16 03:25:27;;;;;;;1999.90;999.90;;;19.30;99.90;;;;;;5097400;28;20512;-82
2021/07/16 03:27:54;;;;;;;1999.90;999.90;;;19.30;99.90;;;;;;5097779;28;20409;-82
2021/07/16 03:30:26;;;;;;;1999.90;999.90;;;19.30;99.90;;;;;;5098010;28;20401;-80
2021/07/16 03:32:53;;;;;;;1999.90;999.90;;;19.40;99.90;;;;;;5097603;28;20435;-83
2021/07/16 03:35:19;;;;;;;1999.90;999.90;;;19.30;99.90;;;;;;5097379;28;20397;-81
2021/07/16 03:37:46;;;;;;;1999.90;999.90;;;19.30;99.90;;;;;;5097864;28;20408;-82
2021/07/16 03:40:17;;;;;;;1999.90;999.90;;;19.20;99.90;;;;;;5097496;28;20768;-82
2021/07/16 03:42:43;;;;;;;1999.90;999.90;;;19.10;99.90;;;;;;5079628;28;20412;-81
2021/07/16 03:45:12;;;;;;;1999.90;999.90;;;19.00;99.90;;;;;;5097271;28;20435;-81
2021/07/16 03:47:42;;;;;;;1999.90;999.90;;;19.00;99.90;;;;;;5097770;28;20421;-81
2021/07/16 03:50:09;;;;;;;1999.90;999.90;;;19.00;99.90;;;;;;5078904;28;20494;-82
2021/07/16 03:52:35;;;;;;;1999.90;999.90;;;19.00;99.90;;;;;;5097163;28;20455;-81
2021/07/16 03:55:05;;;;;;;1999.90;999.90;;;19.00;99.90;;;;;;5096821;28;20397;-81
2021/07/16 03:57:31;;;;;;;1999.90;999.90;;;19.00;99.90;;;;;;5097064;28;20175;-82
2021/07/16 03:59:57;;;;;;;1999.90;999.90;;;19.00;99.90;;;;;;5079188;28;20840;-82
2021/07/16 04:02:23;;;;;;;1999.90;999.90;;;19.00;99.90;;;;;;5097439;28;20406;-83
2021/07/16 04:04:52;;;;;;;1999.90;999.90;;;19.10;99.90;;;;;;5096892;28;20417;-82
2021/07/16 04:07:22;;;;;;;1999.90;999.90;;;19.10;99.90;;;;;;5096857;28;20292;-82
2021/07/16 04:09:48;;;;;;;1999.90;999.90;;;19.10;99.90;;;;;;5095151;28;20445;-82
2021/07/16 04:12:16;;;;;;;1999.90;999.90;;;19.00;99.90;;;;;;5096363;28;20467;-82
2021/07/16 04:14:44;;;;;;;1999.90;999.90;;;19.00;99.90;;;;;;5096601;28;20559;-81
2021/07/16 04:17:16;;;;;;;1999.90;999.90;;;19.00;99.90;;;;;;5077698;28;20447;-81
2021/07/16 04:19:44;;;;;;;1999.90;999.90;;;19.00;99.90;;;;;;5077846;28;20402;-82
2021/07/16 04:22:11;;;;;;;1999.90;999.90;;;19.00;99.90;;;;;;5096177;28;20426;-82
2021/07/16 04:24:38;;;;;;;1999.90;999.90;;;19.00;99.90;;;;;;5079311;28;20880;-82
2021/07/16 04:27:05;;;;;;;1999.90;999.90;;;19.00;99.90;;;;;;5096428;28;20421;-81
2021/07/16 04:29:31;;;;;;;1999.90;999.90;;;18.90;99.90;;;;;;5095825;28;20433;-81
2021/07/16 04:32:01;;;;;;;1999.90;999.90;;;18.90;99.90;;;;;;5096105;28;20405;-82
2021/07/16 04:34:31;;;;;;;1999.90;999.90;;;19.00;99.90;;;;;;5078375;28;20484;-82
2021/07/16 04:36:58;;;;;;;1999.90;999.90;;;19.00;99.90;;;;;;5096312;28;20431;-82
2021/07/16 04:39:25;;;;;;;1999.90;999.90;;;19.00;99.90;;;;;;5078584;28;20482;-83
2021/07/16 04:41:50;;;;;;;1999.90;999.90;;;19.00;99.90;;;;;;5096429;28;20405;-82
2021/07/16 04:44:16;;;;;;;1999.90;999.90;;;19.00;99.90;;;;;;5096051;28;20476;-82
2021/07/16 04:46:42;;;;;;;1999.90;999.90;;;19.00;99.90;;;;;;5077906;28;20573;-81
2021/07/16 04:49:08;;;;;;;1999.90;999.90;;;19.00;99.90;;;;;;5095228;28;20174;-82
2021/07/16 04:51:35;;;;;;;1999.90;999.90;;;19.00;99.90;;;;;;5095046;28;20163;-82
2021/07/16 04:54:03;;;;;;;1999.90;999.90;;;19.00;99.90;;;;;;5096445;28;20151;-82
2021/07/16 04:56:29;;;;;;;1999.90;999.90;;;19.00;99.90;;;;;;5096332;28;20463;-83
2021/07/16 04:58:55;;;;;;;1999.90;999.90;;;19.00;99.90;;;;;;5096153;28;20405;-80
2021/07/16 05:01:22;;;;;;;1999.90;999.90;;;19.10;99.90;;;;;;5077654;28;20413;-83
2021/07/16 05:03:49;;;;;;;1999.90;999.90;;;18.90;99.90;;;;;;5096014;28;20404;-82
2021/07/16 05:06:15;;;;;;;1999.90;999.90;;;18.90;99.90;;;;;;5077790;28;20448;-82
2021/07/16 05:08:42;;;;;;;1999.90;999.90;;;18.90;99.90;;;;;;5095120;28;20448;-81
2021/07/16 05:11:08;;;;;;;1999.90;999.90;;;18.80;99.90;;;;;;5095172;28;20401;-80
2021/07/16 05:13:36;;;;;;;1999.90;999.90;;;18.80;99.90;;;;;;5094301;28;20889;-81
2021/07/16 05:16:07;;;;;;;1999.90;999.90;;;18.90;99.90;;;;;;5097518;28;20427;-81
2021/07/16 05:18:33;;;;;;;1999.90;999.90;;;18.80;99.90;;;;;;5079053;28;20405;-81
2021/07/16 05:20:59;;;;;;;1999.90;999.90;;;18.80;99.90;;;;;;5078818;28;20455;-81
2021/07/16 05:23:25;;;;;;;1999.90;999.90;;;18.80;99.90;;;;;;5097246;28;20397;-81
2021/07/16 05:25:51;;;;;;;1999.90;999.90;;;18.80;99.90;;;;;;5097205;28;20455;-80
2021/07/16 05:28:17;;;;;;;1999.90;999.90;;;18.80;99.90;;;;;;5097006;28;20480;-80
2021/07/16 05:30:43;;;;;;;1999.90;999.90;;;18.80;99.90;;;;;;5078834;28;20397;-81
2021/07/16 05:33:09;;;;;;;1999.90;999.90;;;18.80;99.90;;;;;;5095622;28;20668;-81
2021/07/16 05:35:34;;;;;;;1999.90;999.90;;;18.80;99.90;;;;;;5097256;28;20611;-80
2021/07/16 05:38:00;;;;;;;1999.90;999.90;;;18.90;99.90;;;;;;5095833;28;20198;-80
2021/07/16 05:40:26;;;;;;;1999.90;999.90;;;18.90;99.90;;;;;;5095438;28;20174;-80
2021/07/16 05:42:52;;;;;;;1999.90;999.90;;;18.90;99.90;;;;;;5096906;28;20650;-80
2021/07/16 05:45:18;;;;;;;1999.90;999.90;;;18.90;99.90;;;;;;5096537;28;20400;-80
2021/07/16 05:47:45;;;;;;;1999.90;999.90;;;18.90;99.90;;;;;;5096656;28;20496;-80
2021/07/16 05:50:11;;;;;;;1999.90;999.90;;;18.80;99.90;;;;;;5078412;28;20445;-81
2021/07/16 05:52:37;;;;;;;1999.90;999.90;;;18.80;99.90;;;;;;5078819;28;20401;-81
2021/07/16 05:55:04;;;;;;;1999.90;999.90;;;18.80;99.90;;;;;;5096621;28;20404;-80
2021/07/16 05:57:31;;;;;;;1999.90;999.90;;;18.80;99.90;;;;;;5097258;28;20658;-82
2021/07/16 05:59:57;;;;;;;1999.90;999.90;;;18.80;99.90;;;;;;5096798;28;20405;-80
2021/07/16 06:02:23;;;;;;;1999.90;999.90;;;18.80;99.90;;;;;;5095082;28;20499;-81
2021/07/16 06:04:49;;;;;;;1999.90;999.90;;;18.80;99.90;;;;;;5096139;28;20521;-81
2021/07/16 06:07:15;;;;;;;1999.90;999.90;;;18.80;99.90;;;;;;5096653;28;20191;-81
2021/07/16 06:09:41;;;;;;;1999.90;999.90;;;18.80;99.90;;;;;;5098460;28;21015;-82
2021/07/16 06:12:07;;;;;;;1999.90;999.90;;;18.70;99.90;;;;;;5080667;28;20183;-82
2021/07/16 06:14:33;;;;;;;1999.90;999.90;;;18.60;99.90;;;;;;5099239;28;20414;-81
2021/07/16 06:16:58;;;;;;;1999.90;999.90;;;18.60;99.90;;;;;;5096938;28;20425;-83
2021/07/16 06:19:24;;;;;;;1999.90;999.90;;;18.50;99.90;;;;;;5097621;28;20441;-81
2021/07/16 06:21:50;;;;;;;1999.90;999.90;;;18.50;99.90;;;;;;5097624;28;20637;-82
2021/07/16 06:24:16;;;;;;;1999.90;999.90;;;18.50;99.90;;;;;;5099017;28;20159;-83
2021/07/16 06:26:42;;;;;;;1999.90;999.90;;;18.60;99.90;;;;;;5098795;28;20215;-82
2021/07/16 06:29:08;;;;;;;1999.90;999.90;;;18.60;99.90;;;;;;5173399;22;20534;-83
2021/07/16 06:31:35;;;;;;;1999.90;999.90;;;18.50;99.90;;;;;;5097740;28;20397;-81
2021/07/16 06:34:02;;;;;;;1999.90;999.90;;;18.50;99.90;;;;;;5079649;28;20399;-82
2021/07/16 06:36:28;;;;;;;1999.90;999.90;;;18.60;99.90;;;;;;5097853;28;20450;-81
2021/07/16 06:38:53;;;;;;;1999.90;999.90;;;18.60;99.90;;;;;;5097538;28;20401;-81
2021/07/16 06:41:19;;;;;;;1999.90;999.90;;;18.50;99.90;;;;;;5097613;28;20178;-82
2021/07/16 06:43:45;;;;;;;1999.90;999.90;;;18.60;99.90;;;;;;5097964;28;20171;-81
2021/07/16 06:46:12;;;;;;;1999.90;999.90;;;18.50;99.90;;;;;;5080358;28;20328;-83
2021/07/16 06:48:42;;;;;;;1999.90;999.90;;;18.50;99.90;;;;;;5079953;28;20206;-83
2021/07/16 06:51:09;;;;;;;1999.90;999.90;;;18.50;99.90;;;;;;5080226;28;20447;-83
2021/07/16 06:53:35;;;;;;;1999.90;999.90;;;18.50;99.90;;;;;;5080395;28;20401;-84
2021/07/16 06:56:01;;;;;;;1999.90;999.90;;;18.50;99.90;;;;;;5080309;28;20834;-81
2021/07/16 06:58:26;;;;;;;1999.90;999.90;;;18.50;99.90;;;;;;5098002;28;20202;-82
2021/07/16 07:00:52;;;;;;;1999.90;999.90;;;18.50;99.90;;;;;;5098624;28;20163;-82
2021/07/16 07:03:18;;;;;;;1999.90;999.90;;;18.40;99.90;;;;;;5097011;28;20171;-82
2021/07/16 07:05:43;;;;;;;1999.90;999.90;;;18.50;99.90;;;;;;5080442;28;20183;-83
2021/07/16 07:08:09;;;;;;;1999.90;999.90;;;18.50;99.90;;;;;;5098639;28;20164;-82
2021/07/16 07:10:35;;;;;;;1999.90;999.90;;;18.60;99.90;;;;;;5098978;28;20775;-83
2021/07/16 07:13:07;;;;;;;1999.90;999.90;;;18.60;99.90;;;;;;5099591;28;20178;-83
2021/07/16 07:15:35;;;;;;;1999.90;999.90;;;18.50;99.90;;;;;;5099214;28;20536;-82
2021/07/16 07:18:03;;;;;;;1999.90;999.90;;;18.50;99.90;;;;;;5097225;28;20455;-81
2021/07/16 07:20:28;;;;;;;1999.90;999.90;;;18.50;99.90;;;;;;5099028;28;20394;-84
2021/07/16 07:22:54;;;;;;;1999.90;999.90;;;18.60;99.90;;;;;;5098843;28;20424;-82
2021/07/16 07:25:20;;;;;;;1999.90;999.90;;;18.60;99.90;;;;;;5099508;28;20163;-82
2021/07/16 07:27:45;;;;;;;1999.90;999.90;;;18.80;99.90;;;;;;5099177;28;20250;-82
2021/07/16 07:30:11;;;;;;;1999.90;999.90;;;18.80;99.90;;;;;;5099609;28;20581;-83
2021/07/16 07:32:37;;;;;;;1999.90;999.90;;;18.80;99.90;;;;;;5080097;28;20241;-83
2021/07/16 07:35:04;;;;;;;1999.90;999.90;;;18.80;99.90;;;;;;5098800;28;20960;-82
2021/07/16 07:37:29;;;;;;;1999.90;999.90;;;18.80;99.90;;;;;;5097453;28;20190;-82
2021/07/16 07:39:55;;;;;;;1999.90;999.90;;;18.90;99.90;;;;;;5098217;28;20402;-82
2021/07/16 07:42:27;;;;;;;1999.90;999.90;;;18.80;99.90;;;;;;5097888;28;20174;-82
2021/07/16 07:44:54;;;;;;;1999.90;999.90;;;18.90;99.90;;;;;;5096572;28;20927;-82
2021/07/16 07:47:21;;;;;;;1999.90;999.90;;;19.00;99.90;;;;;;5098412;28;20465;-85
2021/07/16 07:49:48;;;;;;;1999.90;999.90;;;19.00;99.90;;;;;;5098159;28;20441;-83
2021/07/16 07:52:14;;;;;;;1999.90;999.90;;;19.00;99.90;;;;;;5099682;28;20919;-83
2021/07/16 07:54:39;;;;;;;1999.90;999.90;;;19.00;99.90;;;;;;5099384;28;20406;-83
2021/07/16 07:57:05;;;;;;;1999.90;999.90;;;18.90;99.90;;;;;;5098634;28;20681;-81
2021/07/16 07:59:31;;;;;;;1999.90;999.90;;;19.00;99.90;;;;;;5099876;28;20507;-83
2021/07/16 08:01:57;;;;;;;1999.90;999.90;;;18.90;99.90;;;;;;5099320;28;20167;-83
2021/07/16 08:04:23;;;;;;;1999.90;999.90;;;18.90;99.90;;;;;;5098426;28;20489;-84
2021/07/16 08:06:49;;;;;;;1999.90;999.90;;;18.90;99.90;;;;;;5096995;28;20425;-83
2021/07/16 08:09:15;;;;;;;1999.90;999.90;;;18.90;99.90;;;;;;5095557;28;20662;-81
2021/07/16 08:11:42;;;;;;;1999.90;999.90;;;19.00;99.90;;;;;;5094304;28;20503;-81
2021/07/16 08:14:07;;;;;;;1999.90;999.90;;;18.90;99.90;;;;;;5095685;28;20907;-81
2021/07/16 08:16:36;;;;;;;1999.90;999.90;;;18.90;99.90;;;;;;5078008;28;20432;-81
2021/07/16 08:19:02;;;;;;;1999.90;999.90;;;18.90;99.90;;;;;;5095898;28;20405;-81
2021/07/16 08:21:28;;;;;;;1999.90;999.90;;;18.90;99.90;;;;;;5096487;28;20405;-82
2021/07/16 08:23:54;;;;;;;1999.90;999.90;;;18.80;99.90;;;;;;5095414;28;20483;-82
2021/07/16 08:26:20;;;;;;;1999.90;999.90;;;18.80;99.90;;;;;;5095902;28;20690;-81
2021/07/16 08:28:46;;;;;;;1999.90;999.90;;;18.80;99.90;;;;;;5095649;28;20199;-81
2021/07/16 08:31:12;;;;;;;1999.90;999.90;;;18.80;99.90;;;;;;5094222;28;20208;-81
2021/07/16 08:33:37;;;;;;;1999.90;999.90;;;18.80;99.90;;;;;;5096075;28;20443;-81
2021/07/16 08:36:03;;;;;;;1999.90;999.90;;;18.80;99.90;;;;;;5095969;28;20420;-81
2021/07/16 08:38:29;;;;;;;1999.90;999.90;;;18.80;99.90;;;;;;5077553;28;20217;-81
2021/07/16 08:40:55;;;;;;;1999.90;999.90;;;18.70;99.90;;;;;;5096615;28;20397;-81
2021/07/16 08:43:24;;;;;;;1999.90;999.90;;;18.70;99.90;;;;;;5096172;28;20179;-81
2021/07/16 08:45:59;;;;;;;1999.90;999.90;;;18.70;99.90;;;;;;5094974;28;20417;-81
2021/07/16 08:48:26;;;;;;;1999.90;999.90;;;18.70;99.90;;;;;;5095633;28;20460;-82
2021/07/16 08:50:53;;;;;;;1999.90;999.90;;;18.60;99.90;;;;;;5095100;28;20394;-82
2021/07/16 08:53:19;;;;;;;1999.90;999.90;;;18.70;99.90;;;;;;5094856;28;20393;-81
2021/07/16 08:55:44;;;;;;;1999.90;999.90;;;18.70;99.90;;;;;;5095182;28;20421;-81
2021/07/16 08:58:11;;;;;;;1999.90;999.90;;;18.80;99.90;;;;;;5094851;28;20405;-81
2021/07/16 09:00:37;;;;;;;1999.90;999.90;;;18.80;99.90;;;;;;5095519;28;20405;-81
2021/07/16 09:03:03;;;;;;;1999.90;999.90;;;18.90;99.90;;;;;;5095351;28;20401;-81
2021/07/16 09:05:35;;;;;;;1999.90;999.90;;;18.90;99.90;;;;;;5174038;22;20999;-80
2021/07/16 09:08:01;;;;;;;1999.90;999.90;;;19.00;99.90;;;;;;5075168;28;20157;-82
2021/07/16 09:10:27;;;;;;;1999.90;999.90;;;19.00;99.90;;;;;;5075480;28;20442;-81
2021/07/16 09:12:58;;;;;;;1999.90;999.90;;;19.20;99.90;;;;;;5073863;28;20415;-82
2021/07/16 09:15:24;;;;;;;1999.90;999.90;;;19.30;99.90;;;;;;5075017;28;20409;-81
2021/07/16 09:17:53;;;;;;;1999.90;999.90;;;19.40;99.90;;;;;;5057023;28;20410;-82
2021/07/16 09:20:26;;;;;;;1999.90;999.90;;;19.50;99.90;;;;;;5075217;28;20481;-80
2021/07/16 09:23:14;;;;;;;1999.90;999.90;;;19.50;99.90;;;;;;5074975;28;20398;-80
2021/07/16 09:25:41;;;;;;;1999.90;999.90;;;19.40;99.90;;;;;;5054304;28;20436;-80
2021/07/16 09:28:06;;;;;;;1999.90;999.90;;;19.50;99.90;;;;;;5074917;28;20406;-80
2021/07/16 09:30:33;;;;;;;1999.90;999.90;;;19.50;99.90;;;;;;5075464;28;20406;-81
2021/07/16 09:33:09;;;;;;;1999.90;999.90;;;19.50;99.90;;;;;;5075192;28;20391;-82
2021/07/16 09:35:42;;;;;;;1999.90;999.90;;;19.50;99.90;;;;;;5075380;28;20394;-81
2021/07/16 09:38:15;;;;;;;1999.90;999.90;;;19.50;99.90;;;;;;5056531;28;20472;-82
2021/07/16 09:40:47;;;;;;;1999.90;999.90;;;19.60;99.90;;;;;;5075033;28;20383;-81
2021/07/16 09:43:23;;;;;;;1999.90;999.90;;;19.70;99.90;;;;;;5056511;28;20775;-82
2021/07/16 09:46:04;;;;;;;1999.90;999.90;;;19.70;99.90;;;;;;5074851;28;20427;-80
2021/07/16 09:48:35;;;;;;;1999.90;999.90;;;19.80;99.90;;;;;;5057089;28;20806;-81
2021/07/16 09:51:12;;;;;;;1999.90;999.90;;;20.00;99.90;;;;;;5074672;28;20371;-82
2021/07/16 09:54:06;;;;;;;1999.90;999.90;;;20.10;99.90;;;;;;5074222;28;20394;-81
2021/07/16 09:56:35;;;;;;;1999.90;999.90;;;20.30;99.90;;;;;;5056267;28;20902;-82
2021/07/16 09:59:06;;;;;;;1999.90;999.90;;;20.40;99.90;;;;;;5074503;28;20945;-82
2021/07/16 10:01:34;;;;;;;1999.90;999.90;;;20.50;99.90;;;;;;5059936;28;20425;-82
2021/07/16 10:04:01;;;;;;;1999.90;999.90;;;20.70;99.90;;;;;;5078285;28;20420;-82
2021/07/16 10:06:28;;;;;;;1999.90;999.90;;;20.80;99.90;;;;;;5059255;28;20906;-81
2021/07/16 10:08:55;;;;;;;1999.90;999.90;;;20.80;99.90;;;;;;5076626;28;20519;-81
2021/07/16 10:11:23;;;;;;;1999.90;999.90;;;20.90;99.90;;;;;;5076996;28;20402;-81
2021/07/16 10:13:50;;;;;;;1999.90;999.90;;;20.80;99.90;;;;;;5076900;28;20413;-82
2021/07/16 10:16:17;;;;;;;1999.90;999.90;;;20.80;99.90;;;;;;5077225;28;20420;-81
2021/07/16 10:18:43;;;;;;;1999.90;999.90;;;20.90;99.90;;;;;;5058812;28;20413;-81
2021/07/16 10:21:09;;;;;;;1999.90;999.90;;;21.00;99.90;;;;;;5058529;28;20413;-83
2021/07/16 10:23:38;;;;;;;1999.90;999.90;;;21.00;99.90;;;;;;5075485;28;20440;-81
2021/07/16 10:26:07;;;;;;;1999.90;999.90;;;21.00;99.90;;;;;;5076731;28;20425;-82
2021/07/16 10:28:41;;;;;;;1999.90;999.90;;;21.00;99.90;;;;;;5058819;28;20448;-83
2021/07/16 10:31:28;;;;;;;1999.90;999.90;;;21.10;99.90;;;;;;5076991;28;20504;-82
2021/07/16 10:34:02;;;;;;;1999.90;999.90;;;21.10;99.90;;;;;;5075200;28;20424;-83
2021/07/16 10:36:37;;;;;;;1999.90;999.90;;;21.10;99.90;;;;;;5058073;28;20507;-81
2021/07/16 10:39:08;;;;;;;1999.90;999.90;;;21.10;99.90;;;;;;5076505;28;20893;-83
2021/07/16 10:41:37;;;;;;;1999.90;999.90;;;21.20;99.90;;;;;;5059006;28;20888;-83
2021/07/16 10:44:03;;;;;;;1999.90;999.90;;;21.30;99.90;;;;;;5058212;28;20508;-83
2021/07/16 10:46:42;;;;;;;1999.90;999.90;;;21.30;99.90;;;;;;5057481;28;20431;-81
2021/07/16 10:49:12;;;;;;;1999.90;999.90;;;21.60;99.90;;;;;;5057926;28;21012;-83
2021/07/16 10:51:39;;;;;;;1999.90;999.90;;;21.80;99.90;;;;;;5057884;28;20396;-82
2021/07/16 10:54:10;;;;;;;1999.90;999.90;;;21.80;99.90;;;;;;5076249;28;20851;-82
2021/07/16 10:56:41;;;;;;;1999.90;999.90;;;21.80;99.90;;;;;;5075558;28;20500;-81
2021/07/16 10:59:08;;;;;;;1999.90;999.90;;;21.90;99.90;;;;;;5057478;28;20420;-81
2021/07/16 11:01:40;;;;;;;1999.90;999.90;;;21.70;99.90;;;;;;5057364;28;20437;-82
2021/07/16 11:04:26;;;;;;;1999.90;999.90;;;21.60;99.90;;;;;;5075525;28;20397;-82
2021/07/16 11:06:57;;;;;;;1999.90;999.90;;;21.60;99.90;;;;;;5016378;28;1200987;-82
2021/07/16 11:09:42;;;;;;;1999.90;999.90;;;21.60;99.90;;;;;;5074721;28;20195;-82
2021/07/16 11:12:24;;;;;;;1999.90;999.90;;;22.00;99.90;;;;;;5075321;28;20481;-82
2021/07/16 11:14:50;;;;;;;1999.90;999.90;;;22.30;99.90;;;;;;5057993;28;20439;-82
2021/07/16 11:17:27;;;;;;;1999.90;999.90;;;22.40;99.90;;;;;;5058290;28;20479;-81
2021/07/16 11:20:29;;;;;;;1999.90;999.90;;;22.50;99.90;;;;;;5074802;28;20414;-82
2021/07/16 11:22:58;;;;;;;1999.90;999.90;;;22.50;99.90;;;;;;5068817;28;20422;-82
2021/07/16 11:25:28;;;;;;;1999.90;999.90;;;22.60;99.90;;;;;;5074142;28;20433;-82
2021/07/16 11:27:55;;;;;;;1999.90;999.90;;;22.60;99.90;;;;;;5075581;28;20394;-82
2021/07/16 11:30:21;;;;;;;1999.90;999.90;;;22.60;99.90;;;;;;5075439;28;20454;-82
2021/07/16 11:32:46;;;;;;;1999.90;999.90;;;22.40;99.90;;;;;;5057974;28;20411;-82
2021/07/16 11:35:13;;;;;;;1999.90;999.90;;;22.20;99.90;;;;;;5074512;28;20444;-81
2021/07/16 11:37:49;;;;;;;1999.90;999.90;;;22.10;99.90;;;;;;5075665;28;20197;-82
2021/07/16 11:40:22;;;;;;;1999.90;999.90;;;21.90;99.90;;;;;;5075919;28;20961;-83
2021/07/16 11:42:51;;;;;;;1999.90;999.90;;;22.00;99.90;;;;;;5074478;28;20406;-82
2021/07/16 11:45:30;;;;;;;1999.90;999.90;;;22.10;99.90;;;;;;5074065;28;20920;-84
2021/07/16 11:47:58;;;;;;;1999.90;999.90;;;22.20;99.90;;;;;;5075499;28;20733;-83
2021/07/16 11:50:24;;;;;;;1999.90;999.90;;;22.30;99.90;;;;;;5057222;28;20454;-82
2021/07/16 11:52:53;;;;;;;1999.90;999.90;;;22.30;99.90;;;;;;5075697;28;20451;-82
2021/07/16 11:55:19;;;;;;;1999.90;999.90;;;22.30;99.90;;;;;;5057840;28;20917;-83
2021/07/16 11:58:04;;;;;;;1999.90;999.90;;;22.00;99.90;;;;;;5075593;28;20399;-82
2021/07/16 12:00:43;;;;;;;1999.90;999.90;;;21.90;99.90;;;;;;5057339;28;20417;-82
2021/07/16 12:03:20;;;;;;;1999.90;999.90;;;21.90;99.90;;;;;;5057427;28;20822;-81